Time;durP1;ratioP1;P1;durP2;ratioP2;P2;SDS_P1;SDS_P2;PMS_P1;PMS_P2;Temp;Humidity;BMP_temperature;BMP_pressure;BME280_temperature;BME280_humidity;BME280_pressure;Samples;Min_cycle;Max_cycle;Signal;HPM_P1;HPM_P2
2022/07/06 00:02:15;;;;;;;0.90;0.90;;;;;;;24.41;40.29;102470.00;4758104;30;20399;-71
2022/07/06 00:04:41;;;;;;;1.98;1.25;;;;;;;24.43;40.30;102469.03;4759917;30;20072;-71
2022/07/06 00:07:06;;;;;;;1.20;1.10;;;;;;;24.46;40.17;102474.00;4759564;30;20064;-72
2022/07/06 00:09:33;;;;;;;2.13;1.38;;;;;;;24.43;40.10;102472.50;4752830;30;20059;-71
2022/07/06 00:11:58;;;;;;;2.85;1.15;;;;;;;24.44;40.18;102476.84;4757566;30;20554;-71
2022/07/06 00:14:24;;;;;;;2.13;1.20;;;;;;;24.44;40.36;102471.50;4758954;30;20055;-71
2022/07/06 00:16:49;;;;;;;1.10;1.00;;;;;;;24.47;40.21;102471.16;4755516;30;20047;-72
2022/07/06 00:19:15;;;;;;;1.30;1.20;;;;;;;24.48;40.46;102472.00;4759374;30;20078;-71
2022/07/06 00:21:40;;;;;;;1.35;1.25;;;;;;;24.47;40.24;102468.50;4760667;30;20128;-71
2022/07/06 00:24:06;;;;;;;1.45;1.10;;;;;;;24.39;40.42;102468.50;4761292;30;20044;-71
2022/07/06 00:26:31;;;;;;;1.17;1.08;;;;;;;24.41;40.29;102462.00;4763705;30;20055;-71
2022/07/06 00:28:57;;;;;;;2.50;1.20;;;;;;;24.47;40.11;102467.66;4756305;30;20051;-71
2022/07/06 00:31:23;;;;;;;1.20;1.00;;;;;;;24.46;40.27;102458.03;4761122;30;20039;-72
2022/07/06 00:33:48;;;;;;;1.52;0.88;;;;;;;24.40;40.22;102456.84;4751187;30;20067;-71
2022/07/06 00:36:14;;;;;;;0.98;0.95;;;;;;;24.46;40.33;102466.84;4772010;29;20047;-71
2022/07/06 00:38:39;;;;;;;1.65;1.17;;;;;;;24.47;40.19;102478.31;4757066;30;20039;-72
2022/07/06 00:41:05;;;;;;;1.42;1.23;;;;;;;24.53;40.28;102474.97;4756391;30;20580;-71
2022/07/06 00:43:47;;;;;;;1.33;1.23;;;;;;;24.48;40.34;102478.16;4758808;30;20039;-71
2022/07/06 00:46:12;;;;;;;1.13;1.00;;;;;;;24.47;40.26;102479.16;4755670;30;20151;-71
2022/07/06 00:48:38;;;;;;;1.42;1.27;;;;;;;24.49;40.44;102477.16;4755935;30;20046;-71
2022/07/06 00:51:03;;;;;;;2.22;1.30;;;;;;;24.49;40.14;102476.31;4757579;30;20055;-71
2022/07/06 00:53:29;;;;;;;1.15;0.95;;;;;;;24.46;40.26;102477.50;4757960;30;20040;-72
2022/07/06 00:55:54;;;;;;;1.58;1.27;;;;;;;24.49;40.33;102474.47;4758391;30;20043;-71
2022/07/06 00:58:20;;;;;;;1.42;1.23;;;;;;;24.47;40.40;102473.00;4758223;30;20127;-71
2022/07/06 01:00:46;;;;;;;2.95;1.27;;;;;;;24.46;40.44;102474.00;4758497;30;20043;-72
2022/07/06 01:03:11;;;;;;;1.13;1.00;;;;;;;24.48;40.38;102472.81;4774054;29;20572;-71
2022/07/06 01:05:37;;;;;;;1.88;1.35;;;;;;;24.53;40.30;102474.97;4755500;30;20040;-71
2022/07/06 01:08:03;;;;;;;1.38;1.10;;;;;;;24.43;40.52;102475.19;4759144;30;20101;-71
2022/07/06 01:10:28;;;;;;;1.45;1.13;;;;;;;24.50;40.30;102470.81;4751665;30;20513;-71
2022/07/06 01:12:56;;;;;;;1.90;1.30;;;;;;;24.49;40.34;102471.81;4758918;30;20449;-71
2022/07/06 01:15:24;;;;;;;1.20;1.10;;;;;;;24.43;40.45;102467.19;4756204;30;20067;-71
2022/07/06 01:17:50;;;;;;;1.23;1.02;;;;;;;24.47;40.41;102473.81;4758267;30;20105;-71
2022/07/06 01:20:19;;;;;;;1.10;1.10;;;;;;;24.46;40.52;102471.34;4770329;29;20090;-71
2022/07/06 01:22:46;;;;;;;1.50;1.25;;;;;;;24.49;40.39;102471.00;4771664;29;20040;-71
2022/07/06 01:25:12;;;;;;;1.25;1.10;;;;;;;24.50;40.32;102472.66;4753135;30;20491;-71
2022/07/06 01:27:40;;;;;;;0.80;0.80;;;;;;;24.48;40.33;102469.31;4765164;29;20048;-71
2022/07/06 01:30:08;;;;;;;1.13;1.13;;;;;;;24.49;40.53;102458.50;4757028;30;20155;-71
2022/07/06 01:32:35;;;;;;;1.67;1.35;;;;;;;24.44;40.50;102454.69;4740164;30;20027;-71
2022/07/06 01:35:01;;;;;;;1.92;1.23;;;;;;;24.43;40.42;102458.38;4756819;30;20064;-71
2022/07/06 01:37:29;;;;;;;1.88;1.20;;;;;;;24.49;40.46;102466.50;4756795;30;20035;-71
2022/07/06 01:39:58;;;;;;;1.38;1.13;;;;;;;24.45;40.42;102448.38;4755725;30;20856;-71
2022/07/06 01:42:24;;;;;;;2.17;1.23;;;;;;;24.44;40.58;102447.53;4757419;30;20047;-71
2022/07/06 01:44:49;;;;;;;0.80;0.80;;;;;;;24.44;40.59;102452.88;4757098;30;20100;-71
2022/07/06 01:47:15;;;;;;;1.30;1.00;;;;;;;24.41;40.57;102445.19;4759830;30;20471;-71
2022/07/06 01:49:40;;;;;;;1.13;0.90;;;;;;;24.41;40.60;102453.19;4755298;30;20487;-71
2022/07/06 01:52:06;;;;;;;1.15;0.80;;;;;;;24.46;40.58;102458.84;4757980;30;20043;-71
2022/07/06 01:54:31;;;;;;;1.23;1.13;;;;;;;24.44;40.50;102450.22;4760188;29;20074;-71
2022/07/06 01:56:57;;;;;;;0.77;0.77;;;;;;;24.44;40.56;102458.19;4755996;30;20052;-71
2022/07/06 01:59:25;;;;;;;1.42;1.13;;;;;;;24.43;40.60;102456.53;4754237;30;20069;-71
2022/07/06 02:01:51;;;;;;;0.70;0.70;;;;;;;24.46;40.72;102464.19;4768492;29;20044;-71
2022/07/06 02:04:16;;;;;;;1.10;1.00;;;;;;;24.41;40.57;102461.19;4769466;29;20473;-71
2022/07/06 02:06:43;;;;;;;0.80;0.75;;;;;;;24.47;40.43;102471.16;4772491;29;20048;-71
2022/07/06 02:09:08;;;;;;;1.77;1.20;;;;;;;24.47;40.41;102457.84;4773316;29;20062;-71
2022/07/06 02:11:34;;;;;;;1.17;0.93;;;;;;;24.40;40.72;102460.34;4755167;30;20074;-71
2022/07/06 02:13:59;;;;;;;1.10;0.98;;;;;;;24.44;40.55;102458.19;4757535;30;20035;-71
2022/07/06 02:16:25;;;;;;;0.90;0.70;;;;;;;24.45;40.49;102453.69;4757007;30;20123;-71
2022/07/06 02:18:51;;;;;;;0.85;0.85;;;;;;;24.47;40.43;102454.34;4754179;30;20067;-71
2022/07/06 02:21:17;;;;;;;0.80;0.80;;;;;;;24.42;40.64;102452.22;4758168;30;20059;-71
2022/07/06 02:23:42;;;;;;;0.70;0.63;;;;;;;24.42;40.64;102457.53;4772513;29;20178;-71
2022/07/06 02:26:08;;;;;;;1.80;1.25;;;;;;;24.45;40.73;102456.38;4755715;30;20051;-71
2022/07/06 02:28:33;;;;;;;1.20;1.10;;;;;;;24.40;40.73;102449.69;4753882;30;20723;-71
2022/07/06 02:30:59;;;;;;;1.05;0.95;;;;;;;24.46;40.60;102450.88;4759365;30;20044;-71
2022/07/06 02:33:26;;;;;;;0.90;0.90;;;;;;;24.40;40.94;102454.19;4773464;29;20043;-71
2022/07/06 02:35:53;;;;;;;2.42;1.15;;;;;;;24.39;40.81;102450.69;4761153;30;20561;-71
2022/07/06 02:38:18;;;;;;;1.42;1.00;;;;;;;24.38;40.78;102448.22;4778160;29;20044;-71
2022/07/06 02:40:44;;;;;;;1.00;1.00;;;;;;;24.38;40.69;102451.69;4759314;30;20043;-71
2022/07/06 02:43:10;;;;;;;0.88;0.88;;;;;;;24.38;40.83;102456.19;4757618;30;20047;-72
2022/07/06 02:45:38;;;;;;;1.15;0.90;;;;;;;24.38;40.65;102462.34;4775493;29;20043;-71
2022/07/06 02:48:04;;;;;;;1.65;0.80;;;;;;;24.41;40.86;102451.34;4758725;30;20047;-71
2022/07/06 02:50:31;;;;;;;1.33;1.08;;;;;;;24.41;40.74;102456.69;4758418;30;20047;-72
2022/07/06 02:52:58;;;;;;;0.80;0.80;;;;;;;24.38;40.61;102454.38;4759374;30;20054;-71
2022/07/06 02:55:24;;;;;;;1.13;0.98;;;;;;;24.42;40.72;102457.53;4758633;30;20082;-71
2022/07/06 02:57:50;;;;;;;0.93;0.88;;;;;;;24.43;40.57;102456.53;4769731;29;20058;-71
2022/07/06 03:00:16;;;;;;;1.38;1.20;;;;;;;24.39;40.69;102457.84;4774542;29;20036;-71
2022/07/06 03:02:42;;;;;;;1.42;0.93;;;;;;;24.44;40.70;102460.03;4757409;30;21153;-71
2022/07/06 03:05:09;;;;;;;0.68;0.65;;;;;;;24.36;40.82;102461.69;4757676;30;20043;-71
2022/07/06 03:07:35;;;;;;;0.85;0.82;;;;;;;24.40;40.82;102460.34;4760598;30;20051;-71
2022/07/06 03:10:01;;;;;;;1.23;1.10;;;;;;;24.36;40.79;102460.88;4757973;30;20096;-71
2022/07/06 03:12:27;;;;;;;0.68;0.68;;;;;;;24.37;40.71;102463.34;4760319;30;20043;-72
2022/07/06 03:14:52;;;;;;;1.42;0.98;;;;;;;24.38;40.71;102464.19;4759754;30;20407;-71
2022/07/06 03:17:18;;;;;;;3.17;0.93;;;;;;;24.41;40.71;102464.66;4771464;29;20040;-71
2022/07/06 03:19:45;;;;;;;1.55;1.10;;;;;;;24.39;40.82;102466.66;4757842;30;20099;-71
2022/07/06 03:22:11;;;;;;;1.80;1.00;;;;;;;24.38;40.77;102462.34;4760356;30;20039;-71
2022/07/06 03:24:37;;;;;;;1.05;0.85;;;;;;;24.36;40.77;102458.19;4754426;30;20044;-71
2022/07/06 03:27:03;;;;;;;0.80;0.80;;;;;;;24.36;40.82;102468.84;4756235;30;20043;-71
2022/07/06 03:29:29;;;;;;;1.15;0.90;;;;;;;24.35;40.88;102468.03;4757970;30;20043;-72
2022/07/06 03:31:54;;;;;;;0.93;0.90;;;;;;;24.37;40.82;102473.19;4757927;30;20048;-71
2022/07/06 03:34:21;;;;;;;0.80;0.80;;;;;;;24.36;40.91;102469.69;4758869;30;20051;-71
2022/07/06 03:36:46;;;;;;;1.55;1.17;;;;;;;24.36;40.85;102472.34;4775275;29;20044;-71
2022/07/06 03:39:13;;;;;;;1.23;1.13;;;;;;;24.37;40.84;102467.84;4759002;30;20047;-71
2022/07/06 03:41:39;;;;;;;0.80;0.80;;;;;;;24.35;41.00;102467.19;4758108;30;20491;-71
2022/07/06 03:44:07;;;;;;;1.05;0.98;;;;;;;24.40;40.91;102467.50;4742637;30;20130;-71
2022/07/06 03:46:33;;;;;;;1.50;1.10;;;;;;;24.37;40.92;102467.84;4774758;29;20047;-72
2022/07/06 03:48:59;;;;;;;0.95;0.80;;;;;;;24.36;40.97;102464.34;4761663;30;20046;-71
2022/07/06 03:51:25;;;;;;;1.52;0.95;;;;;;;24.37;40.89;102462.53;4758609;30;20040;-71
2022/07/06 03:53:51;;;;;;;1.02;0.90;;;;;;;24.35;40.83;102459.22;4752322;30;20142;-71
2022/07/06 03:56:30;;;;;;;1.08;0.80;;;;;;;24.34;40.89;102461.03;4760152;30;20043;-71
2022/07/06 03:59:10;;;;;;;1.45;1.02;;;;;;;24.30;40.99;102459.72;4759331;30;20159;-72
2022/07/06 04:01:37;;;;;;;2.15;1.33;;;;;;;24.37;40.75;102462.53;4772878;29;20051;-71
2022/07/06 04:04:03;;;;;;;2.33;1.30;;;;;;;24.36;40.99;102467.03;4757555;30;20043;-71
2022/07/06 04:06:31;;;;;;;1.15;1.08;;;;;;;24.34;40.90;102460.22;4757620;30;20142;-71
2022/07/06 04:08:57;;;;;;;0.98;0.98;;;;;;;24.33;40.86;102462.03;4758806;30;20060;-71
2022/07/06 04:11:22;;;;;;;1.48;1.10;;;;;;;24.38;40.87;102466.84;4771080;29;20047;-71
2022/07/06 04:13:49;;;;;;;1.13;0.93;;;;;;;24.33;40.89;102456.72;4755645;30;20135;-72
2022/07/06 04:16:14;;;;;;;0.80;0.80;;;;;;;24.30;41.10;102457.06;4778391;29;20125;-71
2022/07/06 04:18:41;;;;;;;0.80;0.80;;;;;;;24.35;40.92;102462.69;4755464;30;20418;-71
2022/07/06 04:21:06;;;;;;;1.02;0.90;;;;;;;24.34;41.05;102470.84;4762578;30;20043;-71
2022/07/06 04:23:35;;;;;;;1.30;1.20;;;;;;;24.30;40.89;102462.38;4758183;30;20051;-71
2022/07/06 04:26:02;;;;;;;1.35;1.17;;;;;;;24.32;40.99;102470.19;4741907;30;20082;-71
2022/07/06 04:28:30;;;;;;;1.20;1.00;;;;;;;24.31;40.93;102474.69;4755933;30;20050;-71
2022/07/06 04:30:56;;;;;;;1.48;1.20;;;;;;;24.26;41.01;102468.19;4758192;30;20035;-71
2022/07/06 04:33:24;;;;;;;1.38;1.00;;;;;;;24.32;41.07;102470.19;4755170;30;20040;-71
2022/07/06 04:35:49;;;;;;;1.20;1.10;;;;;;;24.29;41.00;102470.53;4759130;30;20047;-71
2022/07/06 04:38:15;;;;;;;1.25;0.98;;;;;;;24.30;40.86;102478.34;4759140;30;20122;-71
2022/07/06 04:40:42;;;;;;;1.02;0.93;;;;;;;24.29;41.31;102474.03;4774872;29;20048;-71
2022/07/06 04:43:12;;;;;;;;;;;;;;;24.32;40.92;102471.03;4773633;29;20048;-71
2022/07/06 04:45:38;;;;;;;1.27;0.95;;;;;;;24.36;40.88;102475.00;4767667;29;19936;-72
2022/07/06 04:48:04;;;;;;;0.95;0.85;;;;;;;24.36;41.05;102474.19;4756482;30;20148;-71
2022/07/06 04:50:31;;;;;;;1.00;0.90;;;;;;;24.29;41.10;102467.88;4757879;30;20040;-71
2022/07/06 04:53:00;;;;;;;1.05;0.85;;;;;;;24.28;41.15;102471.53;4757080;30;20044;-71
2022/07/06 04:55:26;;;;;;;0.85;0.85;;;;;;;24.35;40.98;102480.50;4758374;30;20060;-71
2022/07/06 04:57:52;;;;;;;1.50;0.90;;;;;;;24.27;40.90;102476.00;4753995;30;20446;-71
2022/07/06 05:00:19;;;;;;;1.02;0.80;;;;;;;24.32;41.09;102483.50;4755131;30;20044;-72
2022/07/06 05:02:46;;;;;;;0.93;0.90;;;;;;;24.30;41.18;102490.84;4751560;30;20050;-71
2022/07/06 05:05:12;;;;;;;2.35;0.95;;;;;;;24.23;41.07;102492.47;4776046;29;20559;-71
2022/07/06 05:07:41;;;;;;;1.48;1.20;;;;;;;24.27;41.16;102489.31;4757334;30;20047;-71
2022/07/06 05:10:09;;;;;;;1.52;1.05;;;;;;;24.28;41.00;102490.97;4754809;30;20483;-71
2022/07/06 05:12:35;;;;;;;0.80;0.80;;;;;;;24.27;40.94;102502.63;4757405;30;20036;-71
2022/07/06 05:15:00;;;;;;;1.95;1.10;;;;;;;24.30;40.97;102493.50;4757549;30;20403;-71
2022/07/06 05:17:26;;;;;;;1.75;0.98;;;;;;;24.27;41.20;102493.81;4756870;30;20525;-71
2022/07/06 05:19:52;;;;;;;0.98;0.93;;;;;;;24.26;41.16;102492.16;4758884;30;20040;-71
2022/07/06 05:22:18;;;;;;;1.83;0.98;;;;;;;24.22;41.35;102488.16;4757358;30;20044;-71
2022/07/06 05:24:45;;;;;;;1.27;1.00;;;;;;;24.23;41.29;102487.16;4757132;30;20043;-71
2022/07/06 05:27:11;;;;;;;0.80;0.80;;;;;;;24.24;41.36;102494.16;4757843;30;20044;-71
2022/07/06 05:29:37;;;;;;;1.50;1.15;;;;;;;24.22;41.22;102496.13;4759440;30;20146;-71
2022/07/06 05:32:03;;;;;;;0.93;0.75;;;;;;;24.19;41.28;102491.97;4744068;30;20059;-71
2022/07/06 05:34:29;;;;;;;0.93;0.75;;;;;;;24.20;41.40;102488.31;4755679;30;20067;-71
2022/07/06 05:36:55;;;;;;;1.00;0.90;;;;;;;24.21;41.33;102487.31;4757448;30;20044;-71
2022/07/06 05:39:22;;;;;;;0.95;0.85;;;;;;;24.24;41.20;102486.16;4758014;30;20054;-71
2022/07/06 05:41:48;;;;;;;0.95;0.95;;;;;;;24.18;41.21;102492.16;4756165;30;20039;-71
2022/07/06 05:44:14;;;;;;;1.52;0.93;;;;;;;24.19;41.44;102489.31;4757061;30;20105;-71
2022/07/06 05:46:40;;;;;;;0.88;0.80;;;;;;;24.21;41.33;102491.81;4755858;30;20644;-70
2022/07/06 05:51:50;;;;;;;0.95;0.90;;;;;;;24.22;41.15;102504.94;4755188;30;20048;-71
2022/07/06 05:54:17;;;;;;;0.77;0.70;;;;;;;24.21;41.27;102505.13;4754598;30;20054;-71
2022/07/06 05:56:42;;;;;;;1.60;1.10;;;;;;;24.17;41.29;102509.13;4754490;30;20044;-71
2022/07/06 05:59:08;;;;;;;1.48;0.60;;;;;;;24.27;40.90;102502.63;4753790;30;20475;-71
2022/07/06 06:01:34;;;;;;;0.80;0.80;;;;;;;24.23;41.33;102508.44;4753878;30;20048;-71
2022/07/06 06:04:07;;;;;;;0.88;0.88;;;;;;;24.27;41.30;102507.13;4748978;30;20077;-71
2022/07/06 06:06:33;;;;;;;0.70;0.70;;;;;;;24.26;41.31;102494.81;4757098;29;20051;-71
2022/07/06 06:08:58;;;;;;;0.77;0.77;;;;;;;24.26;41.47;102506.28;4758487;30;20070;-71
2022/07/06 06:11:24;;;;;;;0.90;0.80;;;;;;;24.28;41.23;102498.97;4740420;30;20063;-71
2022/07/06 06:13:50;;;;;;;0.68;0.68;;;;;;;24.25;41.43;102496.66;4756477;30;20113;-71
2022/07/06 06:16:15;;;;;;;1.23;0.93;;;;;;;24.32;41.19;102502.97;4756759;30;20051;-71
2022/07/06 06:18:41;;;;;;;1.27;0.82;;;;;;;24.24;41.39;102504.81;4758238;30;20052;-71
2022/07/06 06:21:07;;;;;;;0.95;0.85;;;;;;;24.23;41.29;102505.78;4758965;30;20063;-71
2022/07/06 06:23:32;;;;;;;0.77;0.77;;;;;;;24.21;41.52;102511.28;4757042;30;20142;-71
2022/07/06 06:25:58;;;;;;;0.88;0.82;;;;;;;24.15;41.61;102514.63;4758468;29;20105;-71
2022/07/06 06:28:23;;;;;;;0.60;0.60;;;;;;;24.19;41.43;102513.28;4755612;30;20117;-71
2022/07/06 06:30:49;;;;;;;1.20;0.85;;;;;;;24.14;41.39;102528.09;4757666;30;20044;-71
2022/07/06 06:33:19;;;;;;;0.63;0.60;;;;;;;24.11;41.56;102531.94;4755411;30;20044;-71
2022/07/06 06:35:50;;;;;;;0.75;0.65;;;;;;;24.16;41.58;102528.75;4758282;30;20055;-71
2022/07/06 06:38:17;;;;;;;0.55;0.55;;;;;;;24.18;41.39;102537.41;4755986;30;20056;-71
2022/07/06 06:40:43;;;;;;;1.33;1.02;;;;;;;24.15;41.47;102533.25;4756379;30;20052;-71
2022/07/06 06:43:09;;;;;;;1.15;0.80;;;;;;;24.18;41.37;102534.75;4754313;30;20062;-71
2022/07/06 06:45:42;;;;;;;0.85;0.85;;;;;;;24.17;41.31;102535.75;4754331;30;20598;-71
2022/07/06 06:48:07;;;;;;;1.00;1.00;;;;;;;24.17;41.50;102539.22;4752656;30;20057;-71
2022/07/06 06:50:33;;;;;;;0.93;0.70;;;;;;;24.14;41.65;102544.91;4755305;30;20044;-72
2022/07/06 06:52:58;;;;;;;0.60;0.60;;;;;;;24.25;41.37;102549.06;4755735;30;20740;-71
2022/07/06 06:55:24;;;;;;;1.05;0.95;;;;;;;24.19;41.54;102552.38;4755944;30;20047;-71
2022/07/06 06:57:50;;;;;;;1.08;0.70;;;;;;;24.14;41.58;102552.03;4753849;30;20523;-71
2022/07/06 07:00:15;;;;;;;0.73;0.73;;;;;;;24.13;41.66;102548.56;4749712;30;20055;-71
2022/07/06 07:02:41;;;;;;;1.42;0.98;;;;;;;24.20;41.46;102554.03;4752467;30;20051;-71
2022/07/06 07:05:07;;;;;;;1.10;0.98;;;;;;;24.23;41.51;102551.03;4754698;30;20059;-72
2022/07/06 07:07:33;;;;;;;0.50;0.50;;;;;;;24.22;41.54;102544.03;4752989;30;20057;-71
2022/07/06 07:09:58;;;;;;;1.38;0.80;;;;;;;24.33;41.35;102546.41;4753959;30;20483;-71
2022/07/06 07:12:24;;;;;;;0.50;0.50;;;;;;;24.29;41.38;102550.41;4752188;30;20043;-71
2022/07/06 07:14:49;;;;;;;0.75;0.68;;;;;;;24.29;41.36;102542.44;4754011;30;20055;-71
2022/07/06 07:17:15;;;;;;;0.80;0.70;;;;;;;24.31;41.27;102535.94;4755224;30;20809;-71
2022/07/06 07:19:41;;;;;;;0.90;0.73;;;;;;;24.36;41.39;102538.91;4758446;30;20047;-71
2022/07/06 07:22:07;;;;;;;0.90;0.60;;;;;;;24.40;41.12;102531.41;4755737;30;20155;-72
2022/07/06 07:24:32;;;;;;;1.23;0.70;;;;;;;24.48;41.10;102535.91;4756741;30;20048;-71
2022/07/06 07:26:58;;;;;;;0.80;0.80;;;;;;;24.51;41.09;102527.56;4757514;30;20067;-71
2022/07/06 07:29:23;;;;;;;1.05;0.77;;;;;;;24.49;41.04;102526.91;4756004;30;20047;-71
2022/07/06 07:31:49;;;;;;;0.88;0.70;;;;;;;24.51;41.13;102531.06;4758129;30;20068;-72
2022/07/06 07:34:15;;;;;;;0.80;0.80;;;;;;;24.57;41.12;102527.72;4757987;30;20067;-71
2022/07/06 07:36:40;;;;;;;5.75;0.93;;;;;;;24.30;42.50;102528.13;4752902;30;20168;-70
2022/07/06 07:39:06;;;;;;;2.20;0.70;;;;;;;24.34;42.50;102537.41;4756314;30;20044;-70
2022/07/06 07:41:31;;;;;;;2.10;0.85;;;;;;;24.25;42.49;102527.75;4760219;30;20495;-70
2022/07/06 07:43:57;;;;;;;1.05;0.60;;;;;;;24.21;42.64;102537.06;4760448;30;20044;-70
2022/07/06 07:46:22;;;;;;;3.85;1.00;;;;;;;24.08;42.95;102530.44;4759290;30;20055;-70
2022/07/06 07:48:48;;;;;;;0.95;0.80;;;;;;;24.16;42.81;102534.91;4759865;30;20048;-69
2022/07/06 07:51:14;;;;;;;2.78;1.00;;;;;;;24.15;42.81;102535.91;4755982;30;20059;-69
2022/07/06 07:53:40;;;;;;;9.65;0.98;;;;;;;24.15;42.68;102532.41;4759656;30;20491;-69
2022/07/06 07:56:06;;;;;;;2.35;0.80;;;;;;;24.17;42.47;102531.25;4761044;30;20043;-69
2022/07/06 07:58:31;;;;;;;2.90;1.10;;;;;;;24.07;42.79;102533.25;4758672;30;20048;-69
2022/07/06 08:00:57;;;;;;;2.80;0.95;;;;;;;24.07;42.82;102528.78;4758188;30;20612;-69
2022/07/06 08:03:22;;;;;;;4.38;1.00;;;;;;;24.00;42.96;102533.09;4753339;30;20055;-69
2022/07/06 08:05:48;;;;;;;4.18;1.10;;;;;;;24.00;43.15;102530.41;4759205;30;20044;-69
2022/07/06 08:08:15;;;;;;;2.85;0.80;;;;;;;24.10;42.49;102524.94;4758194;30;20048;-69
2022/07/06 08:10:40;;;;;;;2.95;1.27;;;;;;;24.02;42.50;102516.94;4759084;30;20134;-69
2022/07/06 08:13:07;;;;;;;2.15;1.35;;;;;;;23.97;42.74;102521.94;4755835;30;20036;-69
2022/07/06 08:15:33;;;;;;;2.55;0.60;;;;;;;24.07;42.86;102525.28;4756400;30;20763;-70
2022/07/06 08:17:59;;;;;;;2.58;1.08;;;;;;;24.03;43.19;102526.59;4752796;30;20056;-69
2022/07/06 08:20:24;;;;;;;1.08;0.68;;;;;;;24.13;43.41;102537.91;4758457;30;20047;-70
2022/07/06 08:22:50;;;;;;;3.60;0.80;;;;;;;24.08;43.32;102530.44;4755366;30;20082;-70
2022/07/06 08:25:16;;;;;;;1.08;0.73;;;;;;;24.18;43.12;102542.72;4756474;30;20054;-70
2022/07/06 08:27:42;;;;;;;2.83;0.80;;;;;;;24.19;43.25;102533.75;4754411;30;20103;-70
2022/07/06 08:30:09;;;;;;;1.88;0.82;;;;;;;24.22;43.06;102542.22;4758003;30;20458;-69
2022/07/06 08:32:42;;;;;;;1.33;0.70;;;;;;;24.09;43.36;102534.75;4755741;30;20040;-69
2022/07/06 08:35:09;;;;;;;8.10;1.25;;;;;;;24.16;43.26;102539.41;4757105;30;20414;-70
2022/07/06 08:37:34;;;;;;;2.40;0.70;;;;;;;24.19;42.47;102525.75;4755216;30;20035;-69
2022/07/06 08:40:00;;;;;;;0.80;0.57;;;;;;;24.23;42.26;102532.41;4755804;30;20050;-70
2022/07/06 08:42:36;;;;;;;3.25;0.80;;;;;;;24.17;42.26;102535.75;4761318;30;20062;-70
2022/07/06 08:45:04;;;;;;;1.65;0.80;;;;;;;24.15;42.10;102530.59;4758668;30;20807;-70
2022/07/06 08:47:30;;;;;;;1.55;0.55;;;;;;;23.98;41.91;102526.25;4760268;30;20047;-70
2022/07/06 08:49:56;;;;;;;3.78;0.95;;;;;;;24.08;41.86;102527.78;4771719;29;20625;-70
2022/07/06 08:52:23;;;;;;;2.53;0.77;;;;;;;23.88;41.56;102531.78;4757623;30;20046;-70
2022/07/06 08:54:49;;;;;;;4.68;1.02;;;;;;;24.04;40.67;102523.75;4756355;30;20046;-70
2022/07/06 08:57:15;;;;;;;2.88;0.63;;;;;;;24.12;40.39;102525.59;4759400;30;20550;-70
2022/07/06 08:59:41;;;;;;;3.00;0.70;;;;;;;24.08;40.76;102524.28;4756255;29;20508;-70
2022/07/06 09:02:06;;;;;;;2.20;0.73;;;;;;;24.01;40.98;102533.91;4758370;30;20036;-70
2022/07/06 09:04:36;;;;;;;4.45;0.95;;;;;;;24.03;40.95;102531.91;4759337;30;21122;-69
2022/07/06 09:07:02;;;;;;;;;;;;;;;24.00;41.42;102537.56;4758007;30;20055;-69
2022/07/06 09:09:30;;;;;;;1.25;0.90;;;;;;;24.08;40.92;102525.13;4756791;30;20321;-70
2022/07/06 09:11:57;;;;;;;1.45;0.75;;;;;;;24.03;40.73;102518.59;4760507;30;20052;-69
2022/07/06 09:14:22;;;;;;;0.57;0.57;;;;;;;24.09;40.79;102526.78;4759580;30;20951;-70
2022/07/06 09:17:00;;;;;;;0.63;0.52;;;;;;;24.09;41.00;102529.44;4756433;30;20047;-70
2022/07/06 09:19:26;;;;;;;1.00;0.90;;;;;;;24.03;41.49;102527.41;4755620;29;20129;-69
2022/07/06 09:21:51;;;;;;;0.88;0.50;;;;;;;23.97;41.42;102536.06;4758009;30;20048;-69
2022/07/06 09:24:18;;;;;;;2.80;0.50;;;;;;;24.04;41.65;102534.41;4758975;29;20055;-69
2022/07/06 09:26:44;;;;;;;2.20;1.15;;;;;;;23.95;41.75;102538.06;4760756;30;22079;-70
2022/07/06 09:29:11;;;;;;;1.35;0.55;;;;;;;23.98;42.17;102535.06;4757722;30;20044;-70
2022/07/06 09:31:36;;;;;;;0.90;0.82;;;;;;;24.64;40.75;102546.53;4710098;30;20048;-72
2022/07/06 09:34:09;;;;;;;1.30;0.70;;;;;;;24.81;40.45;102539.31;4754565;30;20373;-70
2022/07/06 09:36:39;;;;;;;2.50;1.15;;;;;;;24.91;40.48;102542.59;4750071;30;20048;-72
2022/07/06 09:39:17;;;;;;;2.30;0.77;;;;;;;24.99;40.33;102545.25;4754906;30;20051;-71
2022/07/06 09:41:43;;;;;;;2.58;1.02;;;;;;;25.02;39.88;102544.09;4756995;30;20071;-75
2022/07/06 09:44:10;;;;;;;1.55;0.65;;;;;;;25.08;40.29;102541.56;4760869;30;20062;-70
2022/07/06 09:46:43;;;;;;;1.40;0.50;;;;;;;25.07;40.30;102544.41;4728692;30;20047;-74
2022/07/06 09:49:08;;;;;;;1.45;0.68;;;;;;;25.14;40.24;102548.88;4755741;30;20686;-73
2022/07/06 09:51:38;;;;;;;3.35;0.88;;;;;;;25.24;40.27;102543.31;4756587;30;20134;-74
2022/07/06 09:54:08;;;;;;;0.65;0.38;;;;;;;25.27;40.26;102535.78;4763943;29;20227;-73
2022/07/06 09:56:41;;;;;;;6.85;0.88;;;;;;;25.33;40.25;102531.63;4746911;30;20058;-71
2022/07/06 09:59:14;;;;;;;1.23;0.77;;;;;;;25.33;40.21;102536.13;4758025;30;20046;-72
2022/07/06 10:01:41;;;;;;;2.15;0.93;;;;;;;25.38;40.11;102525.75;4742600;30;20395;-70
2022/07/06 10:04:08;;;;;;;1.40;0.70;;;;;;;25.41;39.99;102528.88;4745317;30;20454;-70
2022/07/06 10:06:35;;;;;;;0.35;0.35;;;;;;;25.45;40.09;102532.03;4756312;30;20432;-70
2022/07/06 10:09:01;;;;;;;1.88;0.65;;;;;;;25.49;39.80;102531.50;4756361;30;20844;-70
2022/07/06 10:11:29;;;;;;;1.02;0.75;;;;;;;25.49;40.11;102536.00;4751559;30;20347;-74
2022/07/06 10:13:56;;;;;;;0.68;0.60;;;;;;;25.45;40.00;102535.53;4753670;30;20440;-70
2022/07/06 10:16:24;;;;;;;0.52;0.50;;;;;;;25.50;40.24;102530.50;4753816;30;20054;-72
2022/07/06 10:18:53;;;;;;;2.70;0.98;;;;;;;25.49;39.94;102531.50;4747892;30;20578;-75
2022/07/06 10:21:21;;;;;;;0.82;0.60;;;;;;;25.57;39.88;102526.13;4754988;30;20570;-72
2022/07/06 10:23:48;;;;;;;1.77;0.75;;;;;;;25.24;39.66;102527.31;4754215;30;20048;-71
2022/07/06 10:26:15;;;;;;;1.13;0.77;;;;;;;25.35;40.00;102526.94;4754401;30;20507;-71
2022/07/06 10:28:42;;;;;;;1.40;0.95;;;;;;;25.41;40.00;102530.72;4757371;30;20044;-71
2022/07/06 10:31:08;;;;;;;1.30;0.70;;;;;;;25.40;39.78;102527.22;4756684;30;20046;-71
2022/07/06 10:33:36;;;;;;;2.33;0.55;;;;;;;25.47;39.62;102514.00;4744032;30;20052;-69
2022/07/06 10:36:02;;;;;;;0.63;0.50;;;;;;;25.40;39.68;102515.72;4759751;30;20047;-74
2022/07/06 10:38:33;;;;;;;2.65;0.68;;;;;;;25.45;39.36;102516.03;4757735;30;20052;-71
2022/07/06 10:41:03;;;;;;;1.90;0.85;;;;;;;25.41;39.56;102510.22;4755915;30;20047;-70
2022/07/06 10:43:33;;;;;;;1.25;0.60;;;;;;;25.39;40.15;102506.06;4753582;30;21236;-70
2022/07/06 10:46:06;;;;;;;1.27;0.63;;;;;;;25.59;39.02;102501.94;4752685;30;20035;-71
2022/07/06 10:48:38;;;;;;;2.88;0.98;;;;;;;25.59;38.39;102504.59;4737623;30;20458;-71
2022/07/06 10:51:05;;;;;;;2.47;0.93;;;;;;;25.54;37.94;102497.13;4754487;30;20063;-71
2022/07/06 10:53:37;;;;;;;1.10;0.70;;;;;;;25.57;38.02;102499.44;4754874;30;20486;-72
2022/07/06 10:56:05;;;;;;;2.40;1.00;;;;;;;25.59;37.75;102496.59;4755337;30;20222;-69
2022/07/06 10:58:50;;;;;;;0.60;0.55;;;;;;;25.51;37.70;102502.84;4755552;30;20055;-71
2022/07/06 11:01:17;;;;;;;3.00;0.70;;;;;;;25.50;37.73;102506.50;4755702;30;20113;-71
2022/07/06 11:03:58;;;;;;;1.05;0.57;;;;;;;25.53;37.57;102502.66;4730933;30;20054;-71
2022/07/06 11:06:24;;;;;;;2.15;0.55;;;;;;;25.51;37.64;102489.50;4756856;30;20578;-71
2022/07/06 11:09:16;;;;;;;1.67;0.90;;;;;;;25.51;37.85;102494.84;4754898;30;20575;-71
2022/07/06 11:11:45;;;;;;;2.58;0.90;;;;;;;25.54;37.79;102507.81;4756421;30;20822;-71
2022/07/06 11:14:15;;;;;;;1.10;1.00;;;;;;;25.43;37.76;102502.88;4754470;30;20048;-71
2022/07/06 11:16:47;;;;;;;0.82;0.57;;;;;;;25.42;37.30;102501.22;4754180;30;20058;-71
2022/07/06 11:19:23;;;;;;;1.98;0.75;;;;;;;25.36;37.28;102496.59;4743057;30;20101;-71
2022/07/06 11:21:56;;;;;;;1.98;0.70;;;;;;;25.50;37.36;102495.00;4755832;30;20437;-74
2022/07/06 11:24:27;;;;;;;0.80;0.65;;;;;;;25.21;38.22;102487.69;4756422;30;20051;-69
2022/07/06 11:26:54;;;;;;;2.38;0.68;;;;;;;25.32;38.30;102497.13;4756563;30;20059;-70
2022/07/06 11:29:21;;;;;;;2.80;0.80;;;;;;;25.32;38.08;102476.63;4758765;30;20054;-69